Time;durP1;ratioP1;P1;durP2;ratioP2;P2;SDS_P1;SDS_P2;PMS_P1;PMS_P2;Temp;Humidity;BMP_temperature;BMP_pressure;BME280_temperature;BME280_humidity;BME280_pressure;Samples;Min_cycle;Max_cycle;Signal;HPM_P1;HPM_P2
2024/02/06 00:02:02;;;;;;;10.73;3.78;;;;;;;;;;5011090;28;20046;-89
2024/02/06 00:04:31;;;;;;;12.00;3.63;;;;;;;;;;5025587;28;20100;-90
2024/02/06 00:06:58;;;;;;;6.60;2.78;;;;;;;;;;5009241;28;20046;-90
2024/02/06 00:09:25;;;;;;;13.15;3.50;;;;;;;;;;5026632;28;20053;-90
2024/02/06 00:11:53;;;;;;;8.63;3.75;;;;;;;;;;5023257;28;20081;-90
2024/02/06 00:14:20;;;;;;;10.85;3.40;;;;;;;;;;5005664;28;20050;-90
2024/02/06 00:16:47;;;;;;;11.07;3.65;;;;;;;;;;5009226;28;20046;-90
2024/02/06 00:19:14;;;;;;;16.58;3.90;;;;;;;;;;5009569;28;20053;-90
2024/02/06 00:21:42;;;;;;;12.35;3.72;;;;;;;;;;5007323;28;20083;-91
2024/02/06 00:24:09;;;;;;;10.57;3.03;;;;;;;;;;5006011;28;20136;-90
2024/02/06 00:26:36;;;;;;;13.93;4.15;;;;;;;;;;5007188;28;20050;-90
2024/02/06 00:29:04;;;;;;;11.32;4.07;;;;;;;;;;5009022;28;20051;-90
2024/02/06 00:31:31;;;;;;;9.68;3.55;;;;;;;;;;5013644;28;20053;-90
2024/02/06 00:33:58;;;;;;;14.05;4.03;;;;;;;;;;5005517;28;20060;-90
2024/02/06 00:36:26;;;;;;;11.15;3.72;;;;;;;;;;5012278;28;20030;-90
2024/02/06 00:38:53;;;;;;;13.52;3.88;;;;;;;;;;5018409;28;20050;-90
2024/02/06 00:41:20;;;;;;;13.38;4.15;;;;;;;;;;5001645;28;20050;-89
2024/02/06 00:43:48;;;;;;;13.20;3.30;;;;;;;;;;5025721;28;20053;-90
2024/02/06 00:46:15;;;;;;;17.05;4.00;;;;;;;;;;5008766;28;20080;-90
2024/02/06 00:48:42;;;;;;;14.65;3.67;;;;;;;;;;5006240;28;20049;-90
2024/02/06 00:51:10;;;;;;;22.50;4.43;;;;;;;;;;5022580;28;20053;-90
2024/02/06 00:53:37;;;;;;;10.55;3.60;;;;;;;;;;5006650;28;20120;-90
2024/02/06 00:56:05;;;;;;;10.88;4.00;;;;;;;;;;5003011;28;20111;-90
2024/02/06 00:58:32;;;;;;;10.13;3.85;;;;;;;;;;5006039;28;20100;-90
2024/02/06 01:01:00;;;;;;;10.38;3.92;;;;;;;;;;5025734;28;20517;-90
2024/02/06 01:03:28;;;;;;;18.58;4.68;;;;;;;;;;5007729;28;20521;-90
2024/02/06 01:05:55;;;;;;;10.75;4.28;;;;;;;;;;5005023;28;20049;-90
2024/02/06 01:08:22;;;;;;;12.02;3.92;;;;;;;;;;5012287;28;20054;-90
2024/02/06 01:10:50;;;;;;;13.15;4.18;;;;;;;;;;5021665;28;20061;-89
2024/02/06 01:13:17;;;;;;;8.48;3.75;;;;;;;;;;5029622;28;20042;-90
2024/02/06 01:15:45;;;;;;;12.82;4.03;;;;;;;;;;5005721;28;20053;-90
2024/02/06 01:18:12;;;;;;;14.18;5.05;;;;;;;;;;5021871;28;20494;-90
2024/02/06 01:20:39;;;;;;;14.90;4.78;;;;;;;;;;5006419;28;20053;-89
2024/02/06 01:23:07;;;;;;;13.02;3.80;;;;;;;;;;5017645;28;20053;-90
2024/02/06 01:25:34;;;;;;;17.60;4.75;;;;;;;;;;5008157;28;20104;-95
2024/02/06 01:28:02;;;;;;;11.50;4.47;;;;;;;;;;5008014;28;20091;-90
2024/02/06 01:30:29;;;;;;;11.48;4.13;;;;;;;;;;5012818;28;20050;-90
2024/02/06 01:32:56;;;;;;;15.25;5.38;;;;;;;;;;5004354;28;20050;-90
2024/02/06 01:35:24;;;;;;;14.45;4.43;;;;;;;;;;5021794;28;20050;-90
2024/02/06 01:37:51;;;;;;;12.30;4.05;;;;;;;;;;5004441;28;20080;-91
2024/02/06 01:40:18;;;;;;;16.27;4.65;;;;;;;;;;5008515;28;20046;-91
2024/02/06 01:42:47;;;;;;;14.60;4.93;;;;;;;;;;4996724;28;20479;-90
2024/02/06 01:45:15;;;;;;;10.70;4.68;;;;;;;;;;5011949;28;20064;-90
2024/02/06 01:47:42;;;;;;;12.93;4.53;;;;;;;;;;5021865;28;20075;-90
2024/02/06 01:50:10;;;;;;;15.65;4.68;;;;;;;;;;5005340;28;20066;-89
2024/02/06 01:52:38;;;;;;;10.60;4.50;;;;;;;;;;5023611;28;20057;-90
2024/02/06 01:55:06;;;;;;;12.32;4.70;;;;;;;;;;5008568;28;20410;-89
2024/02/06 01:57:35;;;;;;;12.88;4.90;;;;;;;;;;5016062;28;20103;-90
2024/02/06 02:00:04;;;;;;;11.90;4.47;;;;;;;;;;5007976;28;20041;-90
2024/02/06 02:02:31;;;;;;;13.50;5.00;;;;;;;;;;5007425;28;20084;-89
2024/02/06 02:04:59;;;;;;;15.38;4.53;;;;;;;;;;5012584;28;20487;-90
2024/02/06 02:07:28;;;;;;;14.38;5.05;;;;;;;;;;5001137;28;20049;-89
2024/02/06 02:09:56;;;;;;;14.10;5.20;;;;;;;;;;4996979;28;20046;-89
2024/02/06 02:12:23;;;;;;;19.73;4.57;;;;;;;;;;5016647;28;20482;-90
2024/02/06 02:14:51;;;;;;;12.23;4.55;;;;;;;;;;5007485;28;20133;-90
2024/02/06 02:17:18;;;;;;;15.65;5.07;;;;;;;;;;5023661;28;20144;-89
2024/02/06 02:19:45;;;;;;;11.88;4.82;;;;;;;;;;5004519;28;20066;-90
2024/02/06 02:22:13;;;;;;;16.15;5.05;;;;;;;;;;5003848;28;20118;-91
2024/02/06 02:24:40;;;;;;;12.68;4.82;;;;;;;;;;5010534;28;20081;-90
2024/02/06 02:27:07;;;;;;;12.80;4.85;;;;;;;;;;5021533;28;20108;-90
2024/02/06 02:29:35;;;;;;;14.23;5.05;;;;;;;;;;5005275;28;20070;-90
2024/02/06 02:32:02;;;;;;;11.98;5.68;;;;;;;;;;5023876;28;20060;-88
2024/02/06 02:34:30;;;;;;;10.20;5.25;;;;;;;;;;4995575;28;20069;-89
2024/02/06 02:36:57;;;;;;;15.10;5.55;;;;;;;;;;5008283;28;20049;-90
2024/02/06 02:39:25;;;;;;;15.40;5.40;;;;;;;;;;5008940;28;20490;-90
2024/02/06 02:41:52;;;;;;;10.57;4.90;;;;;;;;;;5012435;28;20042;-89
2024/02/06 02:44:20;;;;;;;10.77;5.43;;;;;;;;;;5005007;28;20112;-90
2024/02/06 02:46:47;;;;;;;15.40;5.75;;;;;;;;;;5008246;28;20053;-90
2024/02/06 02:49:14;;;;;;;15.02;5.20;;;;;;;;;;5012209;28;20054;-90
2024/02/06 02:51:42;;;;;;;16.90;5.32;;;;;;;;;;5003049;28;20613;-90
2024/02/06 02:54:11;;;;;;;16.08;6.53;;;;;;;;;;5004283;28;20076;-89
2024/02/06 02:56:38;;;;;;;11.07;4.47;;;;;;;;;;5006587;28;20117;-88
2024/02/06 02:59:06;;;;;;;10.70;5.00;;;;;;;;;;5008239;28;20049;-89
2024/02/06 03:01:33;;;;;;;12.90;4.43;;;;;;;;;;5011996;28;20108;-89
2024/02/06 03:04:00;;;;;;;8.52;4.20;;;;;;;;;;5004618;28;20043;-91
2024/02/06 03:06:28;;;;;;;11.25;4.45;;;;;;;;;;5018602;28;20104;-89
2024/02/06 03:08:55;;;;;;;14.32;4.18;;;;;;;;;;5007559;28;20046;-90
2024/02/06 03:11:25;;;;;;;15.07;4.38;;;;;;;;;;5000258;28;20122;-90
2024/02/06 03:13:52;;;;;;;7.55;3.95;;;;;;;;;;5023494;28;20057;-90
2024/02/06 03:16:19;;;;;;;16.40;4.15;;;;;;;;;;5008732;28;20104;-90
2024/02/06 03:18:47;;;;;;;10.30;3.75;;;;;;;;;;5008038;28;20054;-91
2024/02/06 03:21:14;;;;;;;12.23;4.05;;;;;;;;;;5007144;28;20167;-90
2024/02/06 03:23:42;;;;;;;9.20;3.13;;;;;;;;;;5004541;28;20050;-89
2024/02/06 03:26:09;;;;;;;10.07;3.55;;;;;;;;;;5003476;28;20050;-90
2024/02/06 03:28:36;;;;;;;7.65;3.53;;;;;;;;;;5005141;28;20467;-90
2024/02/06 03:31:04;;;;;;;10.55;3.35;;;;;;;;;;5006701;28;20119;-89
2024/02/06 03:33:34;;;;;;;9.00;3.25;;;;;;;;;;5006042;28;20525;-90
2024/02/06 03:36:01;;;;;;;8.30;3.33;;;;;;;;;;5003027;28;20080;-90
2024/02/06 03:38:29;;;;;;;12.60;3.80;;;;;;;;;;5005353;28;20137;-89
2024/02/06 03:40:56;;;;;;;9.45;3.40;;;;;;;;;;5004132;28;20070;-89
2024/02/06 03:43:24;;;;;;;10.52;3.88;;;;;;;;;;4999769;28;20109;-90
2024/02/06 03:45:51;;;;;;;6.15;2.78;;;;;;;;;;5002874;28;20050;-89
2024/02/06 03:48:18;;;;;;;5.38;2.65;;;;;;;;;;5003215;28;20133;-90
2024/02/06 03:50:45;;;;;;;7.22;3.28;;;;;;;;;;5014019;28;20077;-90
2024/02/06 03:53:13;;;;;;;10.80;3.28;;;;;;;;;;5006491;28;20050;-90
2024/02/06 03:55:41;;;;;;;7.00;2.72;;;;;;;;;;5004012;28;20483;-91
2024/02/06 03:58:09;;;;;;;8.57;2.83;;;;;;;;;;5009115;28;20048;-90
2024/02/06 04:00:37;;;;;;;8.15;3.13;;;;;;;;;;5013804;28;20069;-90
2024/02/06 04:03:04;;;;;;;9.95;2.67;;;;;;;;;;5004854;28;20046;-90
2024/02/06 04:05:31;;;;;;;8.13;3.10;;;;;;;;;;5000423;28;20136;-90
2024/02/06 04:07:59;;;;;;;6.13;3.15;;;;;;;;;;4995695;28;20054;-90
2024/02/06 04:10:26;;;;;;;11.57;3.63;;;;;;;;;;5011633;28;20405;-91
2024/02/06 04:12:53;;;;;;;9.57;3.13;;;;;;;;;;5002813;28;20166;-90
2024/02/06 04:15:21;;;;;;;6.80;2.80;;;;;;;;;;5002710;28;20046;-90
2024/02/06 04:17:48;;;;;;;9.05;2.80;;;;;;;;;;5006190;28;20056;-90
2024/02/06 04:20:15;;;;;;;10.85;2.72;;;;;;;;;;5015812;28;20050;-89
2024/02/06 04:22:43;;;;;;;8.32;2.85;;;;;;;;;;5011124;28;20054;-90
2024/02/06 04:25:10;;;;;;;7.47;2.78;;;;;;;;;;5008747;28;20054;-89
2024/02/06 04:27:38;;;;;;;6.05;2.75;;;;;;;;;;5022338;28;20077;-89
2024/02/06 04:30:06;;;;;;;7.03;2.88;;;;;;;;;;5005911;28;20133;-90
2024/02/06 04:32:33;;;;;;;5.43;2.78;;;;;;;;;;5020420;28;20053;-89
2024/02/06 04:35:01;;;;;;;4.88;2.70;;;;;;;;;;5002493;28;20074;-91
2024/02/06 04:37:28;;;;;;;8.45;2.85;;;;;;;;;;5002839;28;20081;-90
2024/02/06 04:39:55;;;;;;;3.60;2.60;;;;;;;;;;5006022;28;20058;-90
2024/02/06 04:42:23;;;;;;;3.95;2.35;;;;;;;;;;5005852;28;20136;-90
2024/02/06 04:44:50;;;;;;;7.85;2.55;;;;;;;;;;5002431;28;20078;-90
2024/02/06 04:47:17;;;;;;;7.32;2.80;;;;;;;;;;5002073;28;20046;-90
2024/02/06 04:49:45;;;;;;;3.92;2.53;;;;;;;;;;5012882;28;20085;-90
2024/02/06 04:52:13;;;;;;;6.85;2.60;;;;;;;;;;5005586;28;20418;-90
2024/02/06 04:54:41;;;;;;;7.28;2.55;;;;;;;;;;5012624;28;20046;-91
2024/02/06 04:57:09;;;;;;;7.50;2.30;;;;;;;;;;5008399;28;20046;-90
2024/02/06 04:59:36;;;;;;;5.43;2.00;;;;;;;;;;5002669;28;20042;-90
2024/02/06 05:02:04;;;;;;;7.38;2.40;;;;;;;;;;5005007;28;20053;-90
2024/02/06 05:04:31;;;;;;;6.32;2.10;;;;;;;;;;5004963;28;20494;-90
2024/02/06 05:06:59;;;;;;;16.17;2.83;;;;;;;;;;5002077;28;20042;-90
2024/02/06 05:09:27;;;;;;;3.78;1.90;;;;;;;;;;5002724;28;20050;-90
2024/02/06 05:11:54;;;;;;;3.60;2.38;;;;;;;;;;5005131;28;20081;-90
2024/02/06 05:14:21;;;;;;;4.82;1.70;;;;;;;;;;5009661;28;20104;-90
2024/02/06 05:16:49;;;;;;;3.17;1.80;;;;;;;;;;5002641;28;20381;-90
2024/02/06 05:19:18;;;;;;;2.58;1.67;;;;;;;;;;5001842;28;20101;-89
2024/02/06 05:21:45;;;;;;;3.10;1.95;;;;;;;;;;5013569;28;20100;-90
2024/02/06 05:24:13;;;;;;;7.18;1.90;;;;;;;;;;5005430;28;20050;-90
2024/02/06 05:26:40;;;;;;;2.08;1.83;;;;;;;;;;5004858;28;20057;-90
2024/02/06 05:29:07;;;;;;;6.53;1.83;;;;;;;;;;5005021;28;20054;-89
2024/02/06 05:31:34;;;;;;;2.55;1.40;;;;;;;;;;5003419;28;20046;-90
2024/02/06 05:34:02;;;;;;;6.40;1.77;;;;;;;;;;5012093;28;20065;-90
2024/02/06 05:36:29;;;;;;;2.90;1.50;;;;;;;;;;5012914;28;20056;-90
2024/02/06 05:38:56;;;;;;;1.58;1.27;;;;;;;;;;5008623;28;20045;-90
2024/02/06 05:41:23;;;;;;;2.38;1.38;;;;;;;;;;5008524;28;20095;-89
2024/02/06 05:43:51;;;;;;;3.03;1.48;;;;;;;;;;5005008;28;20104;-90
2024/02/06 05:46:19;;;;;;;6.88;1.13;;;;;;;;;;5004663;28;20049;-90
2024/02/06 05:48:46;;;;;;;1.58;1.38;;;;;;;;;;5005024;28;20058;-89
2024/02/06 05:51:13;;;;;;;2.72;1.27;;;;;;;;;;5004944;28;20046;-91
2024/02/06 05:53:41;;;;;;;2.25;1.60;;;;;;;;;;5005737;28;20462;-90
2024/02/06 05:56:08;;;;;;;1.77;1.30;;;;;;;;;;5008340;28;20476;-90
2024/02/06 05:58:38;;;;;;;4.00;1.38;;;;;;;;;;5006853;28;20053;-90
2024/02/06 06:01:05;;;;;;;1.75;1.17;;;;;;;;;;5006870;28;20394;-90
2024/02/06 06:03:32;;;;;;;2.75;1.05;;;;;;;;;;5003210;28;20053;-92
2024/02/06 06:06:00;;;;;;;2.30;1.23;;;;;;;;;;5011290;28;20050;-91
2024/02/06 06:08:27;;;;;;;4.30;1.35;;;;;;;;;;5012771;28;20104;-90
2024/02/06 06:10:56;;;;;;;2.78;1.13;;;;;;;;;;5008365;28;20060;-86
2024/02/06 06:13:26;;;;;;;4.32;1.15;;;;;;;;;;5008165;28;20103;-90
2024/02/06 06:15:54;;;;;;;6.90;1.30;;;;;;;;;;5020856;28;20054;-89
2024/02/06 06:18:21;;;;;;;4.32;1.77;;;;;;;;;;5011822;28;20137;-89
2024/02/06 06:20:49;;;;;;;1.38;1.00;;;;;;;;;;5029056;28;20490;-90
2024/02/06 06:23:16;;;;;;;2.70;1.30;;;;;;;;;;5012097;28;20508;-89
2024/02/06 06:25:44;;;;;;;1.58;1.27;;;;;;;;;;5016224;28;20104;-91
2024/02/06 06:28:11;;;;;;;2.22;1.38;;;;;;;;;;5007932;28;20414;-90
2024/02/06 06:30:38;;;;;;;4.78;1.58;;;;;;;;;;5027069;28;20099;-90
2024/02/06 06:33:06;;;;;;;2.90;1.20;;;;;;;;;;5011726;28;20053;-89
2024/02/06 06:35:33;;;;;;;0.90;0.90;;;;;;;;;;5010254;28;20055;-93
2024/02/06 06:38:00;;;;;;;2.05;0.90;;;;;;;;;;5007811;28;20050;-90
2024/02/06 06:40:27;;;;;;;3.95;1.55;;;;;;;;;;5007868;28;20438;-90
2024/02/06 06:42:55;;;;;;;4.88;1.30;;;;;;;;;;5028667;28;20045;-91
2024/02/06 06:45:22;;;;;;;8.05;1.40;;;;;;;;;;5028522;28;20080;-93
2024/02/06 06:47:49;;;;;;;2.97;1.40;;;;;;;;;;5012566;28;20113;-90
2024/02/06 06:50:17;;;;;;;12.48;1.70;;;;;;;;;;5044512;28;20052;-90
2024/02/06 06:52:44;;;;;;;5.38;1.65;;;;;;;;;;5008361;28;20053;-90
2024/02/06 06:55:12;;;;;;;5.03;1.33;;;;;;;;;;5007761;28;20542;-90
2024/02/06 06:57:42;;;;;;;3.33;1.40;;;;;;;;;;5009768;28;20046;-90
2024/02/06 07:00:11;;;;;;;4.70;1.73;;;;;;;;;;5011294;28;20056;-91
2024/02/06 07:02:39;;;;;;;5.22;1.65;;;;;;;;;;5009072;28;20057;-90
2024/02/06 07:05:10;;;;;;;1.50;1.10;;;;;;;;;;5013083;28;20041;-90
2024/02/06 07:07:38;;;;;;;5.85;1.35;;;;;;;;;;5014988;28;20565;-90
2024/02/06 07:10:06;;;;;;;1.85;1.05;;;;;;;;;;5013336;28;20041;-90
2024/02/06 07:12:34;;;;;;;1.20;1.10;;;;;;;;;;5010618;28;20076;-90
2024/02/06 07:15:03;;;;;;;3.65;1.58;;;;;;;;;;5014303;28;20108;-89
2024/02/06 07:17:31;;;;;;;3.38;1.25;;;;;;;;;;5007576;28;20053;-89
2024/02/06 07:19:58;;;;;;;1.13;1.00;;;;;;;;;;5010383;28;20136;-89
2024/02/06 07:22:26;;;;;;;3.75;1.52;;;;;;;;;;5010137;28;20073;-90
2024/02/06 07:24:53;;;;;;;4.63;1.05;;;;;;;;;;5007316;28;20049;-89
2024/02/06 07:27:20;;;;;;;6.07;1.35;;;;;;;;;;5007010;28;20046;-90
2024/02/06 07:29:49;;;;;;;7.68;1.42;;;;;;;;;;5010401;28;20045;-89
2024/02/06 07:32:17;;;;;;;1.80;1.00;;;;;;;;;;5010170;28;20053;-89
2024/02/06 07:34:44;;;;;;;2.42;1.20;;;;;;;;;;5007478;28;20057;-89
2024/02/06 07:37:11;;;;;;;2.53;1.10;;;;;;;;;;5006789;28;20073;-91
2024/02/06 07:39:39;;;;;;;4.57;0.90;;;;;;;;;;5008756;28;20076;-89
2024/02/06 07:42:07;;;;;;;1.55;0.80;;;;;;;;;;5010079;28;20069;-90
2024/02/06 07:44:35;;;;;;;5.55;1.05;;;;;;;;;;5010454;28;20132;-90
2024/02/06 07:47:02;;;;;;;4.22;1.10;;;;;;;;;;5018233;28;20512;-90
2024/02/06 07:49:29;;;;;;;7.35;1.50;;;;;;;;;;5009858;28;20085;-90
2024/02/06 07:51:57;;;;;;;4.75;1.70;;;;;;;;;;5013705;28;20486;-90
2024/02/06 07:54:24;;;;;;;1.60;0.90;;;;;;;;;;5006725;28;20134;-90
2024/02/06 07:56:51;;;;;;;4.53;1.25;;;;;;;;;;5006551;28;20387;-90
2024/02/06 07:59:18;;;;;;;1.40;1.20;;;;;;;;;;5006417;28;20042;-90
2024/02/06 08:01:46;;;;;;;2.00;1.00;;;;;;;;;;5011629;28;20592;-89
2024/02/06 08:04:14;;;;;;;1.30;1.20;;;;;;;;;;5023681;28;20053;-90
2024/02/06 08:06:41;;;;;;;2.63;1.00;;;;;;;;;;5007867;28;20053;-89
2024/02/06 08:09:09;;;;;;;4.47;1.38;;;;;;;;;;5020347;28;20042;-90
2024/02/06 08:11:36;;;;;;;2.30;1.10;;;;;;;;;;5008165;28;20054;-90
2024/02/06 08:14:03;;;;;;;4.85;1.38;;;;;;;;;;5006051;28;20057;-89
2024/02/06 08:16:31;;;;;;;2.55;0.98;;;;;;;;;;5006540;28;20049;-90
2024/02/06 08:18:58;;;;;;;2.78;1.55;;;;;;;;;;5009441;28;20133;-90
2024/02/06 08:21:25;;;;;;;1.80;1.15;;;;;;;;;;5009376;28;20057;-89
2024/02/06 08:23:54;;;;;;;1.33;1.02;;;;;;;;;;5006040;28;20056;-90
2024/02/06 08:26:22;;;;;;;3.42;1.13;;;;;;;;;;5001386;28;20054;-90
2024/02/06 08:28:49;;;;;;;2.33;0.82;;;;;;;;;;5013647;28;20042;-92
2024/02/06 08:31:17;;;;;;;1.60;1.15;;;;;;;;;;5006004;28;20077;-90
2024/02/06 08:33:44;;;;;;;2.67;0.85;;;;;;;;;;5007621;28;20521;-90
2024/02/06 08:36:15;;;;;;;6.32;1.10;;;;;;;;;;5008542;28;20053;-90
2024/02/06 08:38:43;;;;;;;3.45;1.10;;;;;;;;;;5006823;28;20115;-90
2024/02/06 08:41:10;;;;;;;3.15;1.10;;;;;;;;;;5022613;28;20053;-90
2024/02/06 08:43:37;;;;;;;4.40;1.13;;;;;;;;;;5024172;28;20108;-90
2024/02/06 08:46:18;;;;;;;3.42;1.02;;;;;;;;;;5010846;28;20140;-90
2024/02/06 08:48:46;;;;;;;1.80;0.95;;;;;;;;;;5006378;28;20053;-90
2024/02/06 08:51:13;;;;;;;1.13;0.80;;;;;;;;;;5005694;28;20061;-90
2024/02/06 08:53:41;;;;;;;3.80;0.90;;;;;;;;;;5024569;28;20125;-90
2024/02/06 08:56:08;;;;;;;2.60;1.23;;;;;;;;;;5011068;28;20064;-90
2024/02/06 08:58:36;;;;;;;1.00;0.90;;;;;;;;;;5014923;28;20050;-90
2024/02/06 09:01:03;;;;;;;2.25;1.13;;;;;;;;;;5008517;28;20128;-90
2024/02/06 09:03:30;;;;;;;0.70;0.70;;;;;;;;;;5008139;28;20106;-90
2024/02/06 09:05:57;;;;;;;1.52;1.00;;;;;;;;;;5005174;28;20108;-90
2024/02/06 09:08:25;;;;;;;1.90;0.73;;;;;;;;;;5004918;28;20050;-90
2024/02/06 09:10:52;;;;;;;1.38;0.90;;;;;;;;;;5013121;28;20049;-90
2024/02/06 09:13:22;;;;;;;1.88;0.90;;;;;;;;;;5005420;28;20053;-90
2024/02/06 09:15:51;;;;;;;2.17;1.02;;;;;;;;;;5010577;28;20100;-89
2024/02/06 09:18:19;;;;;;;3.60;1.10;;;;;;;;;;5023845;28;20165;-89
2024/02/06 09:20:47;;;;;;;1.45;1.15;;;;;;;;;;5013406;28;20056;-90
2024/02/06 09:23:14;;;;;;;0.80;0.80;;;;;;;;;;5011452;28;20072;-90
2024/02/06 09:25:43;;;;;;;1.80;1.13;;;;;;;;;;5008232;28;20049;-90
2024/02/06 09:28:11;;;;;;;1.15;0.98;;;;;;;;;;5008230;28;20050;-91
2024/02/06 09:30:39;;;;;;;2.28;1.08;;;;;;;;;;5006701;28;20076;-90
2024/02/06 09:33:07;;;;;;;0.98;0.90;;;;;;;;;;5003805;28;20050;-90
2024/02/06 09:35:35;;;;;;;4.43;1.33;;;;;;;;;;5005387;28;20053;-87
2024/02/06 09:38:02;;;;;;;3.88;0.85;;;;;;;;;;5007900;28;20421;-89
2024/02/06 09:40:31;;;;;;;1.83;0.75;;;;;;;;;;5007650;28;20053;-90
2024/02/06 09:43:00;;;;;;;1.13;1.02;;;;;;;;;;5022304;28;20042;-89
2024/02/06 09:45:28;;;;;;;3.33;0.90;;;;;;;;;;5004674;28;20465;-89
2024/02/06 09:47:56;;;;;;;1.85;0.90;;;;;;;;;;5007836;28;20045;-90
2024/02/06 09:50:23;;;;;;;1.10;0.90;;;;;;;;;;5008106;28;20089;-89
2024/02/06 09:52:51;;;;;;;1.88;0.90;;;;;;;;;;5030140;28;20057;-90
2024/02/06 09:55:20;;;;;;;3.80;1.23;;;;;;;;;;5004384;28;20104;-90
2024/02/06 09:57:48;;;;;;;3.22;1.10;;;;;;;;;;5007737;28;20045;-89
2024/02/06 10:00:19;;;;;;;0.80;0.80;;;;;;;;;;5008143;28;20057;-89
2024/02/06 10:02:48;;;;;;;2.55;0.90;;;;;;;;;;5007562;28;20527;-90
2024/02/06 10:05:18;;;;;;;2.35;0.80;;;;;;;;;;5009386;28;20387;-89
2024/02/06 10:07:48;;;;;;;1.95;0.65;;;;;;;;;;5012512;28;20050;-90
2024/02/06 10:10:16;;;;;;;2.45;0.90;;;;;;;;;;5004488;28;20053;-90
2024/02/06 10:12:44;;;;;;;1.58;1.25;;;;;;;;;;5006450;28;20069;-88
2024/02/06 10:15:18;;;;;;;5.40;0.93;;;;;;;;;;5007525;28;20081;-90
2024/02/06 10:17:46;;;;;;;3.72;1.20;;;;;;;;;;5004879;28;20052;-90
2024/02/06 10:20:13;;;;;;;3.63;1.08;;;;;;;;;;5004425;28;20100;-89
2024/02/06 10:22:41;;;;;;;1.75;1.35;;;;;;;;;;5006258;28;20077;-90
2024/02/06 10:25:09;;;;;;;0.90;0.90;;;;;;;;;;5024846;28;20057;-90
2024/02/06 10:27:38;;;;;;;3.58;1.38;;;;;;;;;;5005782;28;20490;-89
2024/02/06 10:30:06;;;;;;;1.75;1.25;;;;;;;;;;5009222;28;20081;-90
2024/02/06 10:32:34;;;;;;;1.55;1.00;;;;;;;;;;5033536;28;20108;-89
2024/02/06 10:35:06;;;;;;;1.10;1.00;;;;;;;;;;5004220;28;20057;-90
2024/02/06 10:37:37;;;;;;;2.80;1.80;;;;;;;;;;5005026;28;20053;-90
2024/02/06 10:40:12;;;;;;;8.02;1.70;;;;;;;;;;5007304;28;20053;-89
2024/02/06 10:42:40;;;;;;;1.70;1.30;;;;;;;;;;5005768;28;20088;-89
2024/02/06 10:45:28;;;;;;;4.63;1.55;;;;;;;;;;5007214;28;20045;-90
2024/02/06 10:47:56;;;;;;;1.50;1.35;;;;;;;;;;5003437;28;20108;-90
2024/02/06 10:50:23;;;;;;;6.70;1.48;;;;;;;;;;5020948;28;20054;-90
2024/02/06 10:52:51;;;;;;;4.28;1.48;;;;;;;;;;5003901;28;20103;-89
2024/02/06 10:55:18;;;;;;;1.30;1.20;;;;;;;;;;5004125;28;20066;-90
2024/02/06 10:57:46;;;;;;;3.58;2.00;;;;;;;;;;5006856;28;20085;-90
2024/02/06 11:00:20;;;;;;;2.08;1.15;;;;;;;;;;5007798;28;20164;-89
2024/02/06 11:02:50;;;;;;;2.42;1.23;;;;;;;;;;5010142;28;20568;-91
2024/02/06 11:05:27;;;;;;;5.38;1.15;;;;;;;;;;5027975;28;20132;-90
2024/02/06 11:07:54;;;;;;;2.30;0.98;;;;;;;;;;5010859;28;20107;-89
2024/02/06 11:10:22;;;;;;;3.20;1.30;;;;;;;;;;5013155;28;20061;-88
2024/02/06 11:12:57;;;;;;;1.45;1.20;;;;;;;;;;5007121;28;20053;-90
2024/02/06 11:15:24;;;;;;;1.00;0.85;;;;;;;;;;5003466;28;20098;-89
2024/02/06 11:17:54;;;;;;;2.30;0.82;;;;;;;;;;5019344;28;20456;-90
2024/02/06 11:20:24;;;;;;;4.28;1.00;;;;;;;;;;5010792;28;20046;-90
2024/02/06 11:22:53;;;;;;;2.60;0.90;;;;;;;;;;5007360;28;20058;-92
2024/02/06 11:25:20;;;;;;;3.45;1.10;;;;;;;;;;5014746;28;20128;-89
2024/02/06 11:27:49;;;;;;;1.77;0.82;;;;;;;;;;5010347;28;20512;-89
2024/02/06 11:30:17;;;;;;;2.55;1.05;;;;;;;;;;5011633;28;20053;-91
2024/02/06 11:32:44;;;;;;;1.00;0.68;;;;;;;;;;5006621;28;20096;-90
2024/02/06 11:35:11;;;;;;;1.13;1.00;;;;;;;;;;5006686;28;20049;-89
2024/02/06 11:37:39;;;;;;;3.22;0.90;;;;;;;;;;5006995;28;20054;-90
2024/02/06 11:40:13;;;;;;;1.92;0.90;;;;;;;;;;5010502;28;20049;-90
2024/02/06 11:42:41;;;;;;;0.63;0.57;;;;;;;;;;5010451;28;20049;-88
2024/02/06 11:45:09;;;;;;;2.47;0.90;;;;;;;;;;5025202;28;20050;-89
2024/02/06 11:47:38;;;;;;;1.48;0.82;;;;;;;;;;5012486;28;20053;-92
2024/02/06 11:50:09;;;;;;;1.63;0.80;;;;;;;;;;5010317;28;20049;-90
2024/02/06 11:52:36;;;;;;;2.13;0.70;;;;;;;;;;5010595;28;20049;-93
2024/02/06 11:55:04;;;;;;;0.98;0.90;;;;;;;;;;5010007;28;20049;-89
2024/02/06 11:57:32;;;;;;;2.15;0.95;;;;;;;;;;5009915;28;20049;-89
2024/02/06 11:59:59;;;;;;;0.93;0.88;;;;;;;;;;5007949;28;20050;-89
2024/02/06 12:02:26;;;;;;;2.47;0.73;;;;;;;;;;5003757;28;20066;-90
2024/02/06 12:05:04;;;;;;;1.58;0.80;;;;;;;;;;4999025;28;20132;-92
2024/02/06 12:07:33;;;;;;;1.98;0.88;;;;;;;;;;5014889;28;20060;-90
2024/02/06 12:10:00;;;;;;;2.08;1.17;;;;;;;;;;5014321;28;20104;-90
2024/02/06 12:12:29;;;;;;;2.65;1.25;;;;;;;;;;5006746;28;20056;-92
2024/02/06 12:14:56;;;;;;;1.30;1.10;;;;;;;;;;5007187;28;20057;-89
2024/02/06 12:17:24;;;;;;;1.05;0.95;;;;;;;;;;5006828;28;20406;-89
2024/02/06 12:19:52;;;;;;;0.88;0.88;;;;;;;;;;5006296;28;20430;-89
2024/02/06 12:22:20;;;;;;;1.15;1.05;;;;;;;;;;5010133;28;20076;-89
2024/02/06 12:24:47;;;;;;;1.25;1.15;;;;;;;;;;5008853;28;20053;-89
2024/02/06 12:27:14;;;;;;;2.85;1.10;;;;;;;;;;5009203;28;20141;-91
2024/02/06 12:29:42;;;;;;;1.17;1.08;;;;;;;;;;5007969;28;20065;-89
2024/02/06 12:32:10;;;;;;;1.80;1.00;;;;;;;;;;5005692;28;20042;-89
2024/02/06 12:34:37;;;;;;;3.10;1.30;;;;;;;;;;5011443;28;20593;-94
2024/02/06 12:37:04;;;;;;;3.60;1.13;;;;;;;;;;5006014;28;20057;-89
2024/02/06 12:39:32;;;;;;;9.35;1.50;;;;;;;;;;5007005;28;20072;-90
2024/02/06 12:42:03;;;;;;;1.45;1.30;;;;;;;;;;5013162;28;20117;-92
2024/02/06 12:44:31;;;;;;;4.13;1.35;;;;;;;;;;5014544;28;20060;-90
2024/02/06 12:47:15;;;;;;;1.30;1.20;;;;;;;;;;5007740;28;20124;-89
2024/02/06 12:49:43;;;;;;;1.27;1.17;;;;;;;;;;5012599;28;20061;-89
2024/02/06 12:52:17;;;;;;;1.20;1.08;;;;;;;;;;5022620;28;20493;-88
2024/02/06 12:54:45;;;;;;;2.80;1.15;;;;;;;;;;5008104;28;20057;-89
2024/02/06 12:57:15;;;;;;;1.85;1.33;;;;;;;;;;5008941;28;20053;-89
2024/02/06 12:59:47;;;;;;;1.63;1.48;;;;;;;;;;5021483;28;20050;-89
2024/02/06 13:02:14;;;;;;;2.03;1.20;;;;;;;;;;5008981;28;20045;-88
2024/02/06 13:04:42;;;;;;;2.92;1.20;;;;;;;;;;5006531;28;20501;-90
2024/02/06 13:07:25;;;;;;;5.28;1.20;;;;;;;;;;5005171;28;20108;-88
2024/02/06 13:10:03;;;;;;;1.90;1.00;;;;;;;;;;5005415;28;20049;-89
2024/02/06 13:12:31;;;;;;;1.25;1.10;;;;;;;;;;5005682;28;20053;-89
2024/02/06 13:14:59;;;;;;;4.97;1.33;;;;;;;;;;5008459;28;20072;-89
2024/02/06 13:17:28;;;;;;;3.30;1.25;;;;;;;;;;5008536;28;20053;-89
2024/02/06 13:20:05;;;;;;;4.80;1.38;;;;;;;;;;5008166;28;20575;-88
2024/02/06 13:22:37;;;;;;;4.75;1.27;;;;;;;;;;5008607;28;20077;-89
2024/02/06 13:25:05;;;;;;;1.75;1.10;;;;;;;;;;5013271;28;20061;-89
2024/02/06 13:27:33;;;;;;;3.10;1.20;;;;;;;;;;5002112;28;20046;-89
2024/02/06 13:30:00;;;;;;;2.45;1.40;;;;;;;;;;4998248;28;20049;-90
2024/02/06 13:32:27;;;;;;;4.80;1.55;;;;;;;;;;5017696;28;20073;-89
2024/02/06 13:34:55;;;;;;;2.80;1.50;;;;;;;;;;5007912;28;20049;-90
2024/02/06 13:37:22;;;;;;;2.33;1.35;;;;;;;;;;5007898;28;20136;-90
2024/02/06 13:39:50;;;;;;;5.07;2.00;;;;;;;;;;5005298;28;20054;-91
2024/02/06 13:42:17;;;;;;;3.40;1.70;;;;;;;;;;5004975;28;20238;-90
2024/02/06 13:44:44;;;;;;;4.32;2.47;;;;;;;;;;5013971;28;20057;-89
2024/02/06 13:47:11;;;;;;;5.03;1.85;;;;;;;;;;5009803;28;20080;-87
2024/02/06 13:49:38;;;;;;;3.67;1.40;;;;;;;;;;5006160;28;20065;-89
2024/02/06 13:52:06;;;;;;;2.85;1.60;;;;;;;;;;5007926;28;20057;-89
2024/02/06 13:54:33;;;;;;;6.65;2.03;;;;;;;;;;5008168;28;20050;-88
2024/02/06 13:57:06;;;;;;;6.50;1.55;;;;;;;;;;5011161;28;20046;-90
2024/02/06 13:59:33;;;;;;;3.15;1.52;;;;;;;;;;5004732;28;20383;-90
2024/02/06 14:02:01;;;;;;;4.30;1.90;;;;;;;;;;5009223;28;20041;-89
2024/02/06 14:04:28;;;;;;;1.58;1.45;;;;;;;;;;5007961;28;20053;-89
2024/02/06 14:06:57;;;;;;;2.25;1.75;;;;;;;;;;5012053;28;20129;-89
2024/02/06 14:09:24;;;;;;;1.77;1.67;;;;;;;;;;5012618;28;20058;-90
2024/02/06 14:11:57;;;;;;;2.00;1.70;;;;;;;;;;5007971;28;20061;-88
2024/02/06 14:14:25;;;;;;;3.08;1.80;;;;;;;;;;5024033;28;20109;-88
2024/02/06 14:16:52;;;;;;;2.50;1.80;;;;;;;;;;5004558;28;20050;-89
2024/02/06 14:19:21;;;;;;;9.07;1.88;;;;;;;;;;5004651;28;20050;-89
2024/02/06 14:21:48;;;;;;;3.33;2.05;;;;;;;;;;5004714;28;20486;-88
2024/02/06 14:24:16;;;;;;;3.13;2.20;;;;;;;;;;5011192;28;20046;-89
2024/02/06 14:26:43;;;;;;;2.70;2.15;;;;;;;;;;5007489;28;20050;-89
2024/02/06 14:29:11;;;;;;;3.80;1.88;;;;;;;;;;5009496;28;20050;-89
2024/02/06 14:31:38;;;;;;;4.43;1.92;;;;;;;;;;5015819;28;20144;-91
2024/02/06 14:34:05;;;;;;;6.10;2.20;;;;;;;;;;5008096;28;20065;-90
2024/02/06 14:36:33;;;;;;;3.53;2.30;;;;;;;;;;5009215;28;20479;-89
2024/02/06 14:39:01;;;;;;;3.25;2.15;;;;;;;;;;5011483;28;20057;-89
2024/02/06 14:41:28;;;;;;;4.13;2.20;;;;;;;;;;5010578;28;20421;-89
2024/02/06 14:43:55;;;;;;;3.85;2.40;;;;;;;;;;5008830;28;20062;-88
2024/02/06 14:46:22;;;;;;;4.88;2.20;;;;;;;;;;5004295;28;20046;-89